Time;durP1;ratioP1;P1;durP2;ratioP2;P2;SDS_P1;SDS_P2;PMS_P1;PMS_P2;Temp;Humidity;BMP_temperature;BMP_pressure;BME280_temperature;BME280_humidity;BME280_pressure;Samples;Min_cycle;Max_cycle;Signal;HPM_P1;HPM_P2
2022/03/18 00:02:06;;;;;;;16.90;4.40;;;;;;;;;;5047378;28;20029;-66
2022/03/18 00:04:32;;;;;;;16.63;4.30;;;;;;;;;;5046725;28;20462;-65
2022/03/18 00:06:59;;;;;;;15.48;4.10;;;;;;;;;;5048114;28;20416;-66
2022/03/18 00:09:25;;;;;;;14.88;4.10;;;;;;;;;;5048898;28;20485;-65
2022/03/18 00:11:51;;;;;;;18.58;4.45;;;;;;;;;;5048525;28;20413;-66
2022/03/18 00:14:19;;;;;;;15.70;4.03;;;;;;;;;;5049538;28;20025;-66
2022/03/18 00:16:46;;;;;;;15.30;4.05;;;;;;;;;;5037669;28;20398;-66
2022/03/18 00:19:12;;;;;;;19.00;4.32;;;;;;;;;;5049859;28;20037;-66
2022/03/18 00:21:38;;;;;;;15.48;3.85;;;;;;;;;;5050458;28;20342;-66
2022/03/18 00:24:05;;;;;;;16.05;4.18;;;;;;;;;;5042344;28;20379;-66
2022/03/18 00:26:31;;;;;;;15.25;4.30;;;;;;;;;;5050519;28;20031;-66
2022/03/18 00:28:57;;;;;;;17.45;3.90;;;;;;;;;;5050543;28;20036;-67
2022/03/18 00:31:24;;;;;;;16.13;4.07;;;;;;;;;;5049874;28;20037;-66
2022/03/18 00:33:50;;;;;;;13.27;3.90;;;;;;;;;;5052313;28;20484;-66
2022/03/18 00:36:16;;;;;;;16.60;4.30;;;;;;;;;;5054219;28;20421;-67
2022/03/18 00:38:42;;;;;;;19.35;4.00;;;;;;;;;;5054115;28;20109;-66
2022/03/18 00:41:08;;;;;;;16.20;4.00;;;;;;;;;;5053349;28;20056;-65
2022/03/18 00:43:34;;;;;;;19.33;4.10;;;;;;;;;;5052844;28;20374;-65
2022/03/18 00:46:00;;;;;;;11.77;3.63;;;;;;;;;;5053824;28;20036;-66
2022/03/18 00:53:55;;;;;;;17.67;4.10;;;;;;;;;;5052703;28;20472;-65
2022/03/18 00:56:22;;;;;;;14.80;3.80;;;;;;;;;;5054009;28;20535;-65
2022/03/18 00:58:48;;;;;;;15.32;3.70;;;;;;;;;;5051895;28;20024;-66
2022/03/18 01:01:14;;;;;;;13.52;3.75;;;;;;;;;;5060823;28;20029;-66
2022/03/18 01:03:40;;;;;;;12.70;3.67;;;;;;;;;;5053758;28;20033;-65
2022/03/18 01:06:06;;;;;;;15.30;3.75;;;;;;;;;;5038163;28;20040;-66
2022/03/18 01:08:32;;;;;;;13.77;3.92;;;;;;;;;;5047254;28;20056;-65
2022/03/18 01:11:01;;;;;;;15.00;3.78;;;;;;;;;;5062709;28;20390;-66
2022/03/18 01:13:27;;;;;;;17.25;3.95;;;;;;;;;;5021166;28;20040;-66
2022/03/18 01:15:53;;;;;;;13.82;3.90;;;;;;;;;;5051339;28;20064;-67
2022/03/18 01:18:19;;;;;;;14.65;3.78;;;;;;;;;;5053667;28;20028;-65
2022/03/18 01:20:46;;;;;;;16.08;4.20;;;;;;;;;;5058297;28;20039;-65
2022/03/18 01:23:12;;;;;;;12.80;3.58;;;;;;;;;;5039588;28;20033;-71
2022/03/18 01:25:38;;;;;;;16.00;3.60;;;;;;;;;;5058820;28;20085;-64
2022/03/18 01:28:06;;;;;;;17.90;4.00;;;;;;;;;;5041430;28;20511;-63
2022/03/18 01:30:32;;;;;;;15.05;3.78;;;;;;;;;;5047971;28;20134;-69
2022/03/18 01:33:02;;;;;;;20.15;3.90;;;;;;;;;;5064884;28;20032;-70
2022/03/18 01:35:28;;;;;;;14.88;3.47;;;;;;;;;;5072528;28;20020;-68
2022/03/18 01:37:54;;;;;;;18.92;3.78;;;;;;;;;;5074096;28;20024;-68
2022/03/18 01:40:21;;;;;;;21.27;4.15;;;;;;;;;;5061196;28;20038;-68
2022/03/18 01:42:47;;;;;;;18.65;4.13;;;;;;;;;;5060291;28;20059;-65
2022/03/18 01:45:13;;;;;;;18.65;4.07;;;;;;;;;;5045332;28;20029;-65
2022/03/18 01:47:42;;;;;;;17.65;3.90;;;;;;;;;;5031645;28;20453;-65
2022/03/18 01:50:10;;;;;;;21.10;3.90;;;;;;;;;;5044299;28;20039;-65
2022/03/18 01:52:37;;;;;;;16.30;4.00;;;;;;;;;;5051472;28;20021;-66
2022/03/18 01:55:03;;;;;;;16.95;3.83;;;;;;;;;;5051453;28;20067;-66
2022/03/18 01:57:29;;;;;;;17.15;4.00;;;;;;;;;;5051802;28;20521;-66
2022/03/18 01:59:56;;;;;;;15.95;3.60;;;;;;;;;;5054724;28;20390;-65
2022/03/18 02:02:22;;;;;;;15.57;3.97;;;;;;;;;;5073462;28;20043;-65
2022/03/18 02:04:49;;;;;;;12.60;3.60;;;;;;;;;;5072769;28;20028;-66
2022/03/18 02:07:15;;;;;;;15.73;3.70;;;;;;;;;;5054002;28;20048;-65
2022/03/18 02:09:41;;;;;;;16.60;3.67;;;;;;;;;;5053845;28;20037;-67
2022/03/18 02:12:12;;;;;;;16.25;3.85;;;;;;;;;;5050826;28;20028;-66
2022/03/18 02:14:42;;;;;;;16.02;3.67;;;;;;;;;;5032799;28;20398;-65
2022/03/18 02:17:09;;;;;;;18.67;4.13;;;;;;;;;;5050235;28;20036;-66
2022/03/18 02:19:36;;;;;;;16.55;3.70;;;;;;;;;;5048068;28;20043;-65
2022/03/18 02:22:05;;;;;;;16.98;3.88;;;;;;;;;;5046560;28;20032;-64
2022/03/18 02:24:31;;;;;;;17.60;3.70;;;;;;;;;;5050059;28;20044;-64
2022/03/18 02:26:57;;;;;;;18.88;3.70;;;;;;;;;;5039108;28;20025;-64
2022/03/18 02:29:24;;;;;;;19.27;4.53;;;;;;;;;;5047325;28;20110;-64
2022/03/18 02:31:50;;;;;;;16.17;3.90;;;;;;;;;;5042107;28;20064;-65
2022/03/18 02:34:16;;;;;;;16.63;3.80;;;;;;;;;;5035745;28;20079;-64
2022/03/18 02:36:42;;;;;;;18.70;3.90;;;;;;;;;;5041845;28;20382;-65
2022/03/18 02:39:08;;;;;;;16.45;3.85;;;;;;;;;;5046946;28;20030;-63
2022/03/18 02:41:35;;;;;;;20.00;3.60;;;;;;;;;;5046409;28;20033;-64
2022/03/18 02:44:01;;;;;;;16.63;4.00;;;;;;;;;;5041799;28;20051;-63
2022/03/18 02:46:32;;;;;;;14.80;3.38;;;;;;;;;;5046428;28;20807;-64
2022/03/18 02:48:59;;;;;;;16.00;3.50;;;;;;;;;;5055439;28;20120;-62
2022/03/18 02:51:25;;;;;;;15.68;3.67;;;;;;;;;;5050293;28;20044;-63
2022/03/18 02:53:51;;;;;;;14.93;3.72;;;;;;;;;;5053446;28;20040;-63
2022/03/18 02:56:17;;;;;;;13.57;3.42;;;;;;;;;;5052195;28;20048;-63
2022/03/18 02:58:44;;;;;;;20.77;4.25;;;;;;;;;;5040829;28;20478;-63
2022/03/18 03:01:10;;;;;;;15.75;3.80;;;;;;;;;;5041517;28;20036;-63
2022/03/18 03:03:36;;;;;;;14.93;3.70;;;;;;;;;;5033743;28;20025;-63
2022/03/18 03:08:47;;;;;;;14.75;3.78;;;;;;;;;;5041297;28;20082;-64
2022/03/18 03:11:13;;;;;;;14.63;3.60;;;;;;;;;;5052968;28;20493;-63
2022/03/18 03:13:39;;;;;;;16.27;4.05;;;;;;;;;;5028913;28;20025;-63
2022/03/18 03:16:05;;;;;;;16.33;3.97;;;;;;;;;;5037716;28;20043;-63
2022/03/18 03:18:32;;;;;;;15.70;4.03;;;;;;;;;;5047267;28;20029;-62
2022/03/18 03:20:58;;;;;;;13.65;3.60;;;;;;;;;;5050512;28;20074;-65
2022/03/18 03:23:25;;;;;;;17.27;4.13;;;;;;;;;;5052360;28;20023;-62
2022/03/18 03:25:52;;;;;;;15.93;3.92;;;;;;;;;;5043308;28;20387;-62
2022/03/18 03:28:18;;;;;;;14.57;3.67;;;;;;;;;;5033305;28;20105;-63
2022/03/18 03:30:44;;;;;;;17.58;3.58;;;;;;;;;;5036334;28;20043;-61
2022/03/18 03:33:11;;;;;;;15.05;3.90;;;;;;;;;;5052908;28;20076;-62
2022/03/18 03:35:37;;;;;;;12.57;3.72;;;;;;;;;;5045831;28;20045;-62
2022/03/18 03:38:04;;;;;;;16.05;3.90;;;;;;;;;;5044921;28;20032;-63
2022/03/18 03:40:30;;;;;;;12.95;3.80;;;;;;;;;;5032821;28;20497;-63
2022/03/18 03:42:57;;;;;;;15.43;3.92;;;;;;;;;;5044296;28;20017;-63
2022/03/18 03:45:23;;;;;;;16.23;4.28;;;;;;;;;;5032727;28;20087;-65
2022/03/18 03:47:49;;;;;;;14.88;3.85;;;;;;;;;;5047867;28;20532;-63
2022/03/18 03:50:15;;;;;;;15.45;4.00;;;;;;;;;;5043288;28;20041;-63
2022/03/18 03:52:42;;;;;;;12.00;3.72;;;;;;;;;;5039046;28;20420;-63
2022/03/18 03:55:09;;;;;;;16.40;3.80;;;;;;;;;;5052476;28;20021;-63
2022/03/18 03:57:35;;;;;;;13.35;3.80;;;;;;;;;;5051201;28;20028;-63
2022/03/18 04:00:01;;;;;;;13.27;3.85;;;;;;;;;;5039900;28;20417;-62
2022/03/18 04:02:27;;;;;;;14.90;3.90;;;;;;;;;;5033531;28;20071;-62
2022/03/18 04:04:53;;;;;;;11.98;3.53;;;;;;;;;;5051933;28;20080;-61
2022/03/18 04:07:20;;;;;;;14.65;3.70;;;;;;;;;;5043641;28;20082;-62
2022/03/18 04:09:49;;;;;;;16.75;4.30;;;;;;;;;;5052811;28;20131;-62
2022/03/18 04:12:15;;;;;;;12.18;3.40;;;;;;;;;;5054771;28;20111;-63
2022/03/18 04:14:41;;;;;;;16.77;4.20;;;;;;;;;;5036257;28;20040;-63
2022/03/18 04:17:07;;;;;;;13.60;3.78;;;;;;;;;;5036388;28;20021;-63
2022/03/18 04:19:33;;;;;;;13.50;3.63;;;;;;;;;;5039639;28;20406;-63
2022/03/18 04:21:59;;;;;;;13.10;3.83;;;;;;;;;;5050744;28;20114;-62
2022/03/18 04:24:25;;;;;;;16.02;4.00;;;;;;;;;;5036200;28;20478;-62
2022/03/18 04:26:51;;;;;;;16.98;4.35;;;;;;;;;;5036150;28;20668;-62
2022/03/18 04:29:17;;;;;;;12.82;3.85;;;;;;;;;;5024345;28;20055;-63
2022/03/18 04:31:45;;;;;;;15.13;4.05;;;;;;;;;;5055646;28;20400;-63
2022/03/18 04:34:12;;;;;;;15.00;4.10;;;;;;;;;;5037581;28;20053;-63
2022/03/18 04:36:38;;;;;;;16.63;4.18;;;;;;;;;;5038133;28;20030;-63
2022/03/18 04:39:04;;;;;;;11.55;3.63;;;;;;;;;;5046598;28;20017;-64
2022/03/18 04:41:30;;;;;;;15.13;3.80;;;;;;;;;;5055723;28;20056;-62
2022/03/18 04:43:56;;;;;;;14.30;3.85;;;;;;;;;;5051238;28;20021;-63
2022/03/18 04:46:22;;;;;;;12.48;3.70;;;;;;;;;;5038138;28;20036;-63
2022/03/18 04:48:48;;;;;;;13.90;3.78;;;;;;;;;;5035455;28;20029;-66
2022/03/18 04:51:14;;;;;;;14.40;3.65;;;;;;;;;;5054899;28;20033;-62
2022/03/18 04:53:42;;;;;;;12.82;3.88;;;;;;;;;;5055202;28;20029;-65
2022/03/18 04:58:58;;;;;;;13.07;3.92;;;;;;;;;;5018187;28;20474;-63
2022/03/18 05:01:25;;;;;;;15.65;3.78;;;;;;;;;;5055696;28;20021;-66
2022/03/18 05:03:51;;;;;;;15.95;4.03;;;;;;;;;;5051208;28;20455;-66
2022/03/18 05:06:18;;;;;;;14.07;3.78;;;;;;;;;;5040000;28;20516;-66
2022/03/18 05:08:44;;;;;;;14.45;4.03;;;;;;;;;;5034924;28;20032;-64
2022/03/18 05:11:12;;;;;;;14.13;3.83;;;;;;;;;;5035070;28;20045;-64
2022/03/18 05:13:38;;;;;;;11.75;3.78;;;;;;;;;;5042221;28;20033;-63
2022/03/18 05:16:04;;;;;;;15.23;4.00;;;;;;;;;;5025733;28;20461;-64
2022/03/18 05:18:30;;;;;;;13.25;3.58;;;;;;;;;;5054204;28;20037;-64
2022/03/18 05:20:57;;;;;;;13.70;3.90;;;;;;;;;;5054762;28;20043;-64
2022/03/18 05:23:23;;;;;;;15.07;4.25;;;;;;;;;;5054763;28;20082;-64
2022/03/18 05:25:49;;;;;;;15.77;3.95;;;;;;;;;;5054506;28;20032;-65
2022/03/18 05:28:15;;;;;;;15.05;4.13;;;;;;;;;;5053340;28;20025;-64
2022/03/18 05:30:41;;;;;;;15.90;4.03;;;;;;;;;;5054767;28;20544;-65
2022/03/18 05:33:07;;;;;;;12.38;3.75;;;;;;;;;;5036895;28;20062;-64
2022/03/18 05:35:33;;;;;;;13.23;3.60;;;;;;;;;;5054401;28;20082;-67
2022/03/18 05:37:59;;;;;;;13.95;3.83;;;;;;;;;;5050507;28;20036;-64
2022/03/18 05:40:25;;;;;;;12.27;3.90;;;;;;;;;;5054667;28;20029;-66
2022/03/18 05:42:51;;;;;;;14.38;3.65;;;;;;;;;;5052937;28;20046;-63
2022/03/18 05:45:18;;;;;;;14.45;3.80;;;;;;;;;;5054370;28;20035;-66
2022/03/18 05:47:44;;;;;;;12.40;3.67;;;;;;;;;;5043340;28;20111;-66
2022/03/18 05:50:15;;;;;;;15.93;4.07;;;;;;;;;;5054138;28;20123;-66
2022/03/18 05:52:42;;;;;;;14.48;3.97;;;;;;;;;;5054084;28;20055;-65
2022/03/18 05:55:08;;;;;;;13.25;3.50;;;;;;;;;;5054426;28;20032;-64
2022/03/18 05:57:34;;;;;;;14.13;3.90;;;;;;;;;;5052415;28;20074;-66
2022/03/18 06:00:01;;;;;;;12.90;3.83;;;;;;;;;;5052346;28;20064;-63
2022/03/18 06:02:28;;;;;;;14.05;3.47;;;;;;;;;;5053997;28;20051;-63
2022/03/18 06:04:54;;;;;;;15.43;4.07;;;;;;;;;;5053530;28;20527;-61
2022/03/18 06:07:21;;;;;;;12.18;3.78;;;;;;;;;;5054085;28;20079;-64
2022/03/18 06:12:31;;;;;;;14.95;3.70;;;;;;;;;;5053957;28;20555;-64
2022/03/18 06:14:57;;;;;;;13.25;3.65;;;;;;;;;;5051940;28;20461;-63
2022/03/18 06:17:23;;;;;;;13.07;3.80;;;;;;;;;;5036069;28;20533;-65
2022/03/18 06:19:49;;;;;;;12.25;3.85;;;;;;;;;;5040095;28;20398;-63
2022/03/18 06:22:15;;;;;;;12.13;3.70;;;;;;;;;;5019644;28;20472;-65
2022/03/18 06:24:41;;;;;;;13.48;3.80;;;;;;;;;;5045563;28;20544;-64
2022/03/18 06:27:08;;;;;;;14.48;3.70;;;;;;;;;;5053862;28;20025;-67
2022/03/18 06:29:35;;;;;;;12.18;3.70;;;;;;;;;;5042971;28;20083;-65
2022/03/18 06:32:01;;;;;;;13.45;3.80;;;;;;;;;;5033246;28;20025;-63
2022/03/18 06:34:28;;;;;;;13.35;3.63;;;;;;;;;;5036574;28;20106;-67
2022/03/18 06:36:54;;;;;;;14.25;4.00;;;;;;;;;;5049520;28;20049;-63
2022/03/18 06:39:22;;;;;;;14.55;3.67;;;;;;;;;;5053119;28;20542;-64
2022/03/18 06:41:48;;;;;;;14.63;3.70;;;;;;;;;;5035348;28;20021;-64
2022/03/18 06:44:14;;;;;;;15.80;4.10;;;;;;;;;;5045802;28;20025;-67
2022/03/18 06:46:40;;;;;;;13.85;3.97;;;;;;;;;;5051566;28;20033;-64
2022/03/18 06:49:07;;;;;;;14.93;4.00;;;;;;;;;;5033326;28;20060;-64
2022/03/18 06:51:34;;;;;;;14.48;3.78;;;;;;;;;;5033989;28;20141;-64
2022/03/18 06:54:00;;;;;;;12.80;3.70;;;;;;;;;;5033233;28;20029;-64
2022/03/18 06:56:27;;;;;;;13.10;3.85;;;;;;;;;;5033900;28;20025;-63
2022/03/18 06:58:53;;;;;;;15.25;3.70;;;;;;;;;;5033185;28;20071;-62
2022/03/18 07:01:21;;;;;;;14.15;3.70;;;;;;;;;;5032718;28;20596;-62
2022/03/18 07:03:48;;;;;;;11.88;3.60;;;;;;;;;;5039882;28;20053;-62
2022/03/18 07:06:14;;;;;;;14.93;4.13;;;;;;;;;;5047354;28;20029;-62
2022/03/18 07:08:40;;;;;;;13.85;3.83;;;;;;;;;;5044574;28;20112;-61
2022/03/18 07:11:07;;;;;;;14.77;3.97;;;;;;;;;;5036429;28;20055;-61
2022/03/18 07:13:33;;;;;;;13.60;3.70;;;;;;;;;;5037829;28;20364;-61
2022/03/18 07:17:54;;;;;;;12.60;3.67;;;;;;;;;;5048133;28;20036;-61
2022/03/18 07:18:45;;;;;;;14.63;3.92;;;;;;;;;;5052333;28;20071;-62
2022/03/18 07:21:11;;;;;;;11.82;3.55;;;;;;;;;;5047028;28;20036;-64
2022/03/18 07:23:38;;;;;;;17.30;4.05;;;;;;;;;;5034250;28;20026;-61
2022/03/18 07:26:04;;;;;;;13.85;4.00;;;;;;;;;;5037692;28;20402;-62
2022/03/18 07:28:30;;;;;;;16.38;3.88;;;;;;;;;;5052530;28;20497;-67
2022/03/18 07:30:56;;;;;;;15.27;3.97;;;;;;;;;;5041984;28;20037;-67
2022/03/18 07:33:22;;;;;;;16.05;4.10;;;;;;;;;;5052472;28;20127;-61
2022/03/18 07:35:48;;;;;;;14.65;3.60;;;;;;;;;;5052094;28;20032;-64
2022/03/18 07:38:14;;;;;;;13.05;3.50;;;;;;;;;;5033497;28;20025;-66
2022/03/18 07:40:40;;;;;;;14.40;3.70;;;;;;;;;;5033394;28;20025;-68
2022/03/18 07:43:08;;;;;;;13.25;4.00;;;;;;;;;;5056119;28;20386;-62
2022/03/18 07:45:36;;;;;;;14.90;4.18;;;;;;;;;;5045305;28;20026;-62
2022/03/18 07:48:07;;;;;;;16.60;3.85;;;;;;;;;;5056428;28;20091;-61
2022/03/18 07:50:33;;;;;;;;;;;;;;;;;;5056709;28;20037;-61
2022/03/18 07:53:03;;;;;;;14.88;4.00;;;;;;;;;;5041511;28;19915;-61
2022/03/18 07:55:30;;;;;;;14.85;4.18;;;;;;;;;;5038118;28;20040;-61
2022/03/18 07:57:57;;;;;;;16.02;3.78;;;;;;;;;;5055528;28;20120;-62
2022/03/18 08:00:23;;;;;;;15.07;3.80;;;;;;;;;;5036013;28;20552;-60
2022/03/18 08:02:50;;;;;;;12.55;3.60;;;;;;;;;;5043410;28;20043;-59
2022/03/18 08:05:17;;;;;;;12.00;3.50;;;;;;;;;;5048707;28;20037;-62
2022/03/18 08:07:44;;;;;;;12.98;3.90;;;;;;;;;;5055370;28;20183;-62
2022/03/18 08:10:10;;;;;;;14.52;3.80;;;;;;;;;;5055256;28;20064;-62
2022/03/18 08:12:37;;;;;;;14.27;3.53;;;;;;;;;;5050652;28;20431;-67
2022/03/18 08:15:04;;;;;;;14.35;3.90;;;;;;;;;;5047485;28;20037;-61
2022/03/18 08:17:31;;;;;;;17.30;4.03;;;;;;;;;;5054344;28;20060;-61
2022/03/18 08:19:57;;;;;;;13.27;3.63;;;;;;;;;;5052835;28;20048;-64
2022/03/18 08:22:23;;;;;;;18.02;3.92;;;;;;;;;;5035078;28;20064;-62
2022/03/18 08:24:49;;;;;;;13.15;3.47;;;;;;;;;;5045873;28;20220;-62
2022/03/18 08:27:16;;;;;;;14.25;3.60;;;;;;;;;;5054929;28;20025;-68
2022/03/18 08:29:42;;;;;;;18.65;3.72;;;;;;;;;;5045427;28;20041;-62
2022/03/18 08:32:12;;;;;;;12.43;3.58;;;;;;;;;;5047900;28;20041;-62
2022/03/18 08:34:38;;;;;;;13.63;3.47;;;;;;;;;;5046619;28;20021;-65
2022/03/18 08:37:05;;;;;;;13.40;3.63;;;;;;;;;;5052506;28;20040;-63
2022/03/18 08:39:34;;;;;;;15.38;3.85;;;;;;;;;;5053782;28;20048;-67
2022/03/18 08:42:00;;;;;;;15.98;3.65;;;;;;;;;;5049634;28;20033;-64
2022/03/18 08:44:26;;;;;;;12.77;3.60;;;;;;;;;;5047462;28;20524;-67
2022/03/18 08:46:52;;;;;;;14.57;3.28;;;;;;;;;;5042562;28;20483;-63
2022/03/18 08:49:18;;;;;;;13.40;3.28;;;;;;;;;;5053937;28;20029;-61
2022/03/18 08:51:45;;;;;;;11.75;3.08;;;;;;;;;;5047459;28;20112;-65
2022/03/18 08:54:11;;;;;;;12.10;3.28;;;;;;;;;;5051096;28;20028;-64
2022/03/18 08:56:37;;;;;;;17.67;3.55;;;;;;;;;;5045855;28;20394;-63
2022/03/18 08:59:06;;;;;;;14.68;3.65;;;;;;;;;;5044071;28;20029;-61
2022/03/18 09:01:32;;;;;;;19.33;3.90;;;;;;;;;;5046329;28;20047;-61
2022/03/18 09:03:58;;;;;;;17.70;3.42;;;;;;;;;;5054272;28;20071;-60
2022/03/18 09:06:24;;;;;;;16.80;3.58;;;;;;;;;;5044804;28;20440;-64
2022/03/18 09:08:50;;;;;;;19.05;3.63;;;;;;;;;;5048010;28;20501;-64
2022/03/18 09:11:16;;;;;;;15.98;3.50;;;;;;;;;;5033239;28;20069;-61
2022/03/18 09:13:42;;;;;;;18.40;3.42;;;;;;;;;;5038753;28;20404;-63
2022/03/18 09:16:08;;;;;;;20.50;3.40;;;;;;;;;;5046752;28;20532;-64
2022/03/18 09:18:35;;;;;;;21.30;3.50;;;;;;;;;;5053487;28;20025;-63
2022/03/18 09:21:01;;;;;;;18.58;3.40;;;;;;;;;;5052725;28;20065;-63
2022/03/18 09:23:27;;;;;;;23.98;3.50;;;;;;;;;;5050191;28;20029;-62
2022/03/18 09:25:54;;;;;;;15.57;3.50;;;;;;;;;;5051663;28;20033;-61
2022/03/18 09:28:20;;;;;;;15.35;3.42;;;;;;;;;;5050612;28;20040;-61
2022/03/18 09:30:47;;;;;;;15.30;3.65;;;;;;;;;;5046231;28;20087;-64
2022/03/18 09:33:13;;;;;;;16.65;4.00;;;;;;;;;;5050296;28;20024;-65
2022/03/18 09:35:39;;;;;;;16.90;3.92;;;;;;;;;;5039397;28;20064;-61
2022/03/18 09:38:05;;;;;;;15.60;3.90;;;;;;;;;;5040305;28;20013;-62
2022/03/18 09:40:32;;;;;;;16.23;3.80;;;;;;;;;;5054111;28;20044;-63
2022/03/18 09:43:03;;;;;;;18.05;5.03;;;;;;;;;;5046504;28;20033;-63
2022/03/18 09:45:31;;;;;;;16.70;4.05;;;;;;;;;;5046338;28;20029;-61
2022/03/18 09:48:06;;;;;;;14.95;3.75;;;;;;;;;;5051836;28;20073;-62
2022/03/18 09:50:32;;;;;;;15.23;3.70;;;;;;;;;;5049156;28;20043;-65
2022/03/18 09:52:58;;;;;;;18.20;3.70;;;;;;;;;;5047246;28;20036;-64
2022/03/18 09:55:24;;;;;;;18.08;3.90;;;;;;;;;;5047803;28;20034;-62
2022/03/18 09:57:52;;;;;;;11.73;3.40;;;;;;;;;;5044107;28;20041;-61
2022/03/18 10:00:18;;;;;;;12.60;3.42;;;;;;;;;;5043390;28;20545;-64
2022/03/18 10:02:44;;;;;;;16.67;3.70;;;;;;;;;;5046443;28;20047;-63
2022/03/18 10:05:14;;;;;;;14.65;3.35;;;;;;;;;;5043613;28;20059;-68
2022/03/18 10:07:41;;;;;;;19.33;3.50;;;;;;;;;;5046071;28;20025;-70
2022/03/18 10:10:15;;;;;;;16.33;3.50;;;;;;;;;;5043461;28;20332;-64
2022/03/18 10:12:41;;;;;;;30.38;7.65;;;;;;;;;;5040207;28;20039;-70
2022/03/18 10:15:10;;;;;;;23.10;4.60;;;;;;;;;;5047065;28;20159;-65
2022/03/18 10:17:44;;;;;;;21.08;4.63;;;;;;;;;;5046403;28;20037;-63
2022/03/18 10:20:24;;;;;;;42.22;24.23;;;;;;;;;;5043689;28;20350;-66
2022/03/18 10:22:50;;;;;;;41.35;21.38;;;;;;;;;;5042230;28;20385;-66
2022/03/18 10:25:35;;;;;;;43.60;18.73;;;;;;;;;;5040520;28;20025;-66
2022/03/18 10:28:11;;;;;;;34.72;13.60;;;;;;;;;;5104186;27;20824;-63
2022/03/18 10:30:37;;;;;;;31.80;12.85;;;;;;;;;;5084801;28;20103;-63
2022/03/18 10:33:05;;;;;;;27.75;9.90;;;;;;;;;;5088025;28;20033;-63
2022/03/18 10:38:26;;;;;;;27.52;9.00;;;;;;;;;;5086065;28;20063;-62
2022/03/18 10:40:53;;;;;;;23.45;8.10;;;;;;;;;;5089783;28;20492;-67
2022/03/18 10:43:20;;;;;;;22.60;7.20;;;;;;;;;;5086831;28;20081;-62
2022/03/18 10:46:00;;;;;;;23.38;7.10;;;;;;;;;;5089391;28;20093;-67
2022/03/18 10:48:26;;;;;;;24.30;6.75;;;;;;;;;;5088472;28;20116;-61
2022/03/18 10:51:06;;;;;;;22.75;6.10;;;;;;;;;;5088163;28;20012;-66
2022/03/18 10:53:33;;;;;;;19.33;5.80;;;;;;;;;;5082520;28;20043;-61
2022/03/18 10:56:01;;;;;;;21.23;5.22;;;;;;;;;;5092662;28;20039;-63
2022/03/18 10:58:29;;;;;;;23.98;5.10;;;;;;;;;;5088329;28;20024;-62
2022/03/18 11:00:58;;;;;;;54.72;38.17;;;;;;;;;;5090879;28;20024;-66
2022/03/18 11:03:28;;;;;;;38.35;22.10;;;;;;;;;;5092923;28;20028;-64
2022/03/18 11:05:55;;;;;;;23.00;8.65;;;;;;;;;;5088667;28;20032;-63
2022/03/18 11:08:23;;;;;;;19.40;6.35;;;;;;;;;;5089611;28;20098;-67
2022/03/18 11:13:51;;;;;;;13.45;3.65;;;;;;;;;;5090563;28;20088;-63
2022/03/18 11:16:25;;;;;;;17.23;3.40;;;;;;;;;;5086735;28;20537;-69
2022/03/18 11:18:52;;;;;;;15.13;3.15;;;;;;;;;;5090389;28;20404;-66
2022/03/18 11:21:21;;;;;;;12.10;2.97;;;;;;;;;;5088410;28;20413;-64
2022/03/18 11:23:47;;;;;;;16.52;2.80;;;;;;;;;;5097064;28;20123;-66
2022/03/18 11:26:14;;;;;;;10.77;2.70;;;;;;;;;;5088373;28;20040;-66
2022/03/18 11:28:41;;;;;;;12.95;3.88;;;;;;;;;;5085351;28;20035;-62
2022/03/18 11:31:11;;;;;;;13.40;2.70;;;;;;;;;;5081867;28;20059;-65
2022/03/18 11:33:38;;;;;;;13.10;3.17;;;;;;;;;;5099626;28;20024;-63
2022/03/18 11:36:11;;;;;;;10.80;2.70;;;;;;;;;;5104464;28;20028;-66
2022/03/18 11:38:56;;;;;;;12.57;2.65;;;;;;;;;;5085293;28;20025;-66
2022/03/18 11:41:26;;;;;;;10.27;2.70;;;;;;;;;;5077146;28;20025;-66
2022/03/18 11:43:53;;;;;;;10.27;2.72;;;;;;;;;;5067176;28;20025;-66
2022/03/18 11:46:21;;;;;;;8.90;2.42;;;;;;;;;;5069311;28;20024;-65
2022/03/18 11:48:51;;;;;;;11.65;2.53;;;;;;;;;;5069008;28;20025;-65
2022/03/18 11:51:24;;;;;;;16.67;3.65;;;;;;;;;;5079148;28;20068;-65
2022/03/18 11:53:54;;;;;;;14.40;2.80;;;;;;;;;;5065721;28;20039;-59
2022/03/18 11:56:22;;;;;;;14.15;2.92;;;;;;;;;;5081167;28;20765;-64
2022/03/18 11:58:48;;;;;;;9.82;2.50;;;;;;;;;;5072498;28;20032;-64
2022/03/18 12:01:33;;;;;;;10.02;2.60;;;;;;;;;;5083784;28;20493;-64
2022/03/18 12:03:59;;;;;;;11.95;3.28;;;;;;;;;;5070676;28;20060;-64
2022/03/18 12:06:25;;;;;;;13.48;2.75;;;;;;;;;;5068953;28;20059;-65
2022/03/18 12:08:53;;;;;;;11.48;2.92;;;;;;;;;;5071553;28;20066;-64
2022/03/18 12:11:36;;;;;;;9.50;2.78;;;;;;;;;;5065122;28;20032;-63
2022/03/18 12:14:03;;;;;;;15.02;3.00;;;;;;;;;;5069933;28;20102;-65
2022/03/18 12:16:30;;;;;;;8.73;2.70;;;;;;;;;;5074371;28;20020;-67
2022/03/18 12:19:00;;;;;;;13.10;3.55;;;;;;;;;;5068898;28;20080;-63
2022/03/18 12:21:33;;;;;;;12.43;2.67;;;;;;;;;;5071963;28;20036;-66
2022/03/18 12:24:06;;;;;;;13.45;2.90;;;;;;;;;;5072636;28;20028;-66
2022/03/18 12:26:33;;;;;;;10.18;2.55;;;;;;;;;;5078036;28;20040;-66
2022/03/18 12:28:59;;;;;;;8.02;2.30;;;;;;;;;;5089135;28;20099;-67
2022/03/18 12:31:25;;;;;;;14.02;2.90;;;;;;;;;;5078816;28;20025;-66
2022/03/18 12:34:03;;;;;;;10.00;2.50;;;;;;;;;;5054436;28;20486;-66
2022/03/18 12:36:31;;;;;;;11.30;2.50;;;;;;;;;;5064530;28;20048;-64
2022/03/18 12:39:07;;;;;;;11.30;2.70;;;;;;;;;;5069957;28;20068;-62
2022/03/18 12:41:33;;;;;;;12.43;2.90;;;;;;;;;;5063375;28;20036;-64
2022/03/18 12:44:00;;;;;;;11.63;2.83;;;;;;;;;;5068403;28;20032;-64
2022/03/18 12:46:27;;;;;;;12.02;2.67;;;;;;;;;;5073725;28;20056;-64
2022/03/18 12:48:53;;;;;;;9.93;2.67;;;;;;;;;;5069463;28;20024;-64
2022/03/18 12:51:20;;;;;;;14.38;3.03;;;;;;;;;;5062206;28;20020;-62
2022/03/18 12:53:49;;;;;;;17.58;3.10;;;;;;;;;;5066489;28;20520;-68
2022/03/18 12:56:16;;;;;;;12.70;3.20;;;;;;;;;;5067916;28;20036;-63
2022/03/18 12:58:44;;;;;;;13.75;3.25;;;;;;;;;;5075008;28;20027;-64
2022/03/18 13:01:12;;;;;;;15.95;3.38;;;;;;;;;;5067465;28;20047;-61
2022/03/18 13:03:49;;;;;;;15.80;3.28;;;;;;;;;;5072154;28;20028;-64
2022/03/18 13:06:22;;;;;;;16.02;3.83;;;;;;;;;;5065782;28;20041;-60
2022/03/18 13:08:50;;;;;;;15.98;3.30;;;;;;;;;;5063958;28;20039;-60
2022/03/18 13:11:17;;;;;;;23.98;3.60;;;;;;;;;;5078741;28;20044;-63
2022/03/18 13:13:46;;;;;;;16.30;3.75;;;;;;;;;;5069502;28;20043;-63
2022/03/18 13:16:13;;;;;;;18.20;4.03;;;;;;;;;;5061234;28;20036;-64
2022/03/18 13:18:40;;;;;;;12.80;3.47;;;;;;;;;;5071818;28;20044;-62
2022/03/18 13:21:07;;;;;;;16.48;3.65;;;;;;;;;;5070297;28;20032;-62
2022/03/18 13:23:34;;;;;;;13.55;3.42;;;;;;;;;;5064230;28;20671;-65
2022/03/18 13:26:01;;;;;;;18.13;3.70;;;;;;;;;;5056844;28;20048;-68
2022/03/18 13:28:27;;;;;;;19.00;3.42;;;;;;;;;;5065526;28;20133;-66
2022/03/18 13:33:45;;;;;;;17.70;3.42;;;;;;;;;;5057739;28;20044;-65
2022/03/18 13:36:23;;;;;;;11.90;3.00;;;;;;;;;;5085675;28;20105;-65
2022/03/18 13:38:50;;;;;;;14.43;3.30;;;;;;;;;;5057349;28;20050;-64
2022/03/18 13:41:16;;;;;;;21.30;3.40;;;;;;;;;;5063468;28;20036;-63
2022/03/18 13:43:46;;;;;;;15.80;3.20;;;;;;;;;;5073386;28;20025;-66
2022/03/18 13:46:13;;;;;;;18.08;3.30;;;;;;;;;;5065362;28;20036;-65
2022/03/18 13:48:39;;;;;;;15.10;3.17;;;;;;;;;;5070460;28;20100;-61
2022/03/18 13:51:09;;;;;;;11.95;2.80;;;;;;;;;;5073693;28;20031;-64
2022/03/18 13:53:35;;;;;;;10.73;2.92;;;;;;;;;;5066403;28;20025;-59
2022/03/18 13:56:18;;;;;;;12.68;2.92;;;;;;;;;;5066369;28;20917;-64
2022/03/18 13:58:45;;;;;;;14.27;2.97;;;;;;;;;;5071693;28;20073;-63
2022/03/18 14:01:11;;;;;;;14.30;3.30;;;;;;;;;;5066837;28;20033;-60
2022/03/18 14:03:38;;;;;;;20.52;3.20;;;;;;;;;;5068037;28;20505;-64
2022/03/18 14:06:05;;;;;;;17.02;3.08;;;;;;;;;;5059647;28;20854;-65
2022/03/18 14:08:38;;;;;;;17.55;3.30;;;;;;;;;;5060891;28;20041;-64
2022/03/18 14:12:08;;;;;;;20.10;5.18;;;;;;;;;;5054717;28;20055;-65
2022/03/18 14:13:53;;;;;;;16.25;4.68;;;;;;;;;;5073067;28;20031;-66
2022/03/18 14:16:20;;;;;;;19.55;4.15;;;;;;;;;;5069644;28;20032;-66
2022/03/18 14:18:47;;;;;;;17.85;3.70;;;;;;;;;;5069301;28;20028;-68
2022/03/18 14:21:15;;;;;;;16.88;3.90;;;;;;;;;;5065281;28;20039;-68
2022/03/18 14:23:46;;;;;;;10.77;2.90;;;;;;;;;;5079640;28;20020;-67
2022/03/18 14:26:13;;;;;;;11.73;3.00;;;;;;;;;;5069176;28;20401;-66
2022/03/18 14:28:39;;;;;;;10.82;2.80;;;;;;;;;;5071456;28;20067;-66
2022/03/18 14:31:06;;;;;;;13.20;2.90;;;;;;;;;;5070018;28;20058;-64
2022/03/18 14:33:34;;;;;;;15.00;3.00;;;;;;;;;;5062455;28;20025;-67
2022/03/18 14:36:00;;;;;;;7.93;2.55;;;;;;;;;;5077366;28;20460;-66
2022/03/18 14:38:27;;;;;;;10.13;2.70;;;;;;;;;;5079329;28;20568;-66
2022/03/18 14:40:53;;;;;;;12.88;2.90;;;;;;;;;;5066303;28;20024;-64
2022/03/18 14:43:20;;;;;;;11.88;2.72;;;;;;;;;;5062943;28;20032;-63
2022/03/18 14:45:46;;;;;;;13.18;2.50;;;;;;;;;;5065660;28;20224;-67
2022/03/18 14:48:12;;;;;;;11.65;2.65;;;;;;;;;;5071863;28;20040;-66
2022/03/18 14:50:40;;;;;;;11.70;2.60;;;;;;;;;;5070123;28;20020;-66
2022/03/18 14:53:07;;;;;;;12.68;2.65;;;;;;;;;;5075762;28;20032;-66
2022/03/18 14:58:18;;;;;;;13.07;3.60;;;;;;;;;;5064817;28;20603;-66